Latest Weather Observations for Darwin Airport

IDD60801

Issued at 3:01 am CST Thursday 6 October 2022 (issued every 10 minutes, with the page automatically refreshed every 10 minutes)

About weather observations | Map of weather stations | Latest weather observations for NT | Other Formats
Station Details ID: 014015 Name: DARWIN AIRPORT Lat: -12.42 Lon: 130.89 Height: 30.4 m
Data from the previous 72 hours. | See also: Recent months at Darwin Airport
Date/Time
CST
Temp
°C
App
Temp
°C
Dew
Point
°C
Rel
Hum
%
Delta-T
°C
Wind Press
QNH
hPa
Press
MSL
hPa
Rain since
9am
mm
Dir  Spd
km/h
Gust
km/h
Spd
kts
Gust
kts
06/03:00am 26.7 31.6 24.4 87 1.6 N 6 7 3 4 1010.4 1010.1 0.0
06/02:30am 26.8 31.8 24.5 87 1.6 N 6 7 3 4 1010.5 1010.2 0.0
06/02:00am 27.2 32.0 24.5 85 1.9 N 7 11 4 6 1010.7 1010.4 0.0
06/01:30am 27.6 31.7 24.6 84 2.1 NNW 11 15 6 8 1010.6 1010.3 0.0
06/01:00am 27.7 32.4 24.9 85 2.0 NNW 9 11 5 6 1010.7 1010.4 0.0
06/12:30am 27.9 33.0 24.9 84 2.1 NNW 7 11 4 6 1011.1 1010.8 0.0
06/12:00am 28.0 32.9 25.2 85 2.0 NNW 9 11 5 6 1011.5 1011.2 0.0
 
Date/Time
CST
Temp
°C
App
Temp
°C
Dew
Point
°C
Rel
Hum
%
Delta-T
°C
Wind Press
QNH
hPa
Press
MSL
hPa
Rain since
9am
mm
Dir  Spd
km/h
Gust
km/h
Spd
kts
Gust
kts
05/11:30pm 28.2 32.7 25.2 84 2.1 NNW 11 15 6 8 1011.9 1011.6 0.0
05/11:00pm 27.9 32.3 25.1 85 2.0 NNW 11 17 6 9 1012.0 1011.7 0.0
05/10:30pm 27.0 31.8 24.1 84 2.0 NW 6 11 3 6 1012.0 1011.7 0.0
05/10:00pm 27.2 32.3 23.4 80 2.6 WSW 2 4 1 2 1011.8 1011.5 0.0
05/09:30pm 27.0 32.7 23.7 82 2.3 CALM 0 0 0 0 1011.5 1011.2 0.0
05/09:00pm 27.7 32.3 23.1 76 3.1 WSW 4 6 2 3 1011.4 1011.1 0.0
05/08:30pm 27.6 31.6 22.8 75 3.3 SSW 6 9 3 5 1010.9 1010.6 0.0
05/08:00pm 27.6 30.4 23.0 76 3.1 SSW 13 17 7 9 1010.7 1010.4 0.0
05/07:30pm 28.4 32.4 23.8 76 3.2 SW 9 11 5 6 1010.4 1010.1 0.0
05/07:00pm 29.0 33.1 23.2 71 4.0 WSW 7 9 4 5 1009.5 1009.3 0.0
05/06:30pm 29.5 33.3 22.7 67 4.6 SW 7 9 4 5 1009.1 1008.9 0.0
05/06:00pm 29.8 33.6 22.8 66 4.8 S 7 15 4 8 1008.6 1008.4 0.0
05/05:30pm 29.6 31.4 22.6 66 4.8 SSE 17 24 9 13 1008.9 1008.7 0.0
05/05:00pm 32.3 34.0 22.4 56 6.8 NNE 17 22 9 12 1008.4 1008.2 0.0
05/04:30pm 31.9 33.5 22.9 59 6.2 N 19 24 10 13 1007.9 1007.7 0.0
05/04:00pm 32.1 33.7 23.3 59 6.1 N 20 26 11 14 1008.0 1007.8 0.0
05/03:30pm 31.4 35.1 24.5 67 4.8 NNW 13 19 7 10 1008.3 1008.1 0.0
05/03:00pm 30.9 33.1 24.3 68 4.6 N 20 37 11 20 1008.6 1008.4 0.0
05/02:30pm 31.9 34.6 24.2 63 5.4 NNW 17 22 9 12 1008.7 1008.5 0.0
05/02:00pm 31.9 34.3 23.7 62 5.7 NW 17 22 9 12 1009.2 1009.0 0.0
05/01:30pm 33.0 35.4 23.6 57 6.5 NNW 17 22 9 12 1009.6 1009.4 0.0
05/01:00pm 31.8 33.9 23.1 60 6.0 NNW 17 22 9 12 1010.4 1010.1 0.0
05/12:30pm 32.6 35.3 22.1 54 7.2 E 11 19 6 10 1011.0 1010.7 0.0
05/12:00pm 32.4 35.3 23.1 58 6.4 E 13 22 7 12 1011.4 1011.1 0.0
05/11:30am 31.6 34.8 22.3 57 6.3 ENE 9 15 5 8 1011.9 1011.6 0.0
05/11:00am 31.5 34.6 22.8 60 6.0 ENE 11 20 6 11 1012.3 1012.0 0.0
05/10:30am 30.6 34.0 22.7 62 5.4 ENE 9 19 5 10 1012.6 1012.3 0.0
05/10:00am 30.1 33.8 23.3 67 4.7 E 9 17 5 9 1012.6 1012.3 0.0
05/09:30am 29.5 32.9 23.4 69 4.2 NE 11 15 6 8 1012.3 1012.0 0.0
05/09:00am 28.9 32.4 22.9 70 4.1 ENE 9 11 5 6 1012.0 1011.7 32.0
05/08:30am 27.9 31.5 23.1 75 3.3 ENE 9 11 5 6 1011.7 1011.4 32.0
05/08:00am 26.8 30.1 22.6 78 2.8 E 9 11 5 6 1011.4 1011.1 32.0
05/07:30am 25.7 29.2 22.8 84 2.0 ESE 9 11 5 6 1010.8 1010.5 32.0
05/07:00am 24.5 28.4 22.6 89 1.3 ESE 6 9 3 5 1010.3 1010.0 32.0
05/06:30am 24.4 28.1 22.5 89 1.3 ESE 7 7 4 4 1010.2 1009.9 32.0
05/06:00am 24.4 28.1 22.5 89 1.3 E 7 9 4 5 1009.6 1009.4 32.0
05/05:30am 24.6 28.6 22.8 90 1.2 ESE 6 7 3 4 1009.4 1009.2 32.0
05/05:00am 24.4 28.5 23.0 92 0.9 SE 6 7 3 4 1009.3 1009.1 32.0
05/04:30am 24.5 28.5 22.8 90 1.1 SSE 6 9 3 5 1009.3 1009.1 32.0
05/04:00am 24.6 28.6 22.8 90 1.2 ESE 6 7 3 4 1009.2 1009.0 32.0
05/03:30am 24.5 28.6 22.9 91 1.1 SE 6 7 3 4 1009.4 1009.2 32.0
05/03:00am 24.6 28.8 23.2 92 1.0 ESE 6 7 3 4 1009.7 1009.5 32.0
05/02:30am 24.5 28.8 23.3 93 0.8 ESE 6 7 3 4 1009.8 1009.6 32.0
05/02:00am 24.6 28.8 23.2 92 0.9 SSE 6 7 3 4 1009.9 1009.7 32.0
05/01:30am 24.6 28.8 23.2 92 1.0 SSE 6 7 3 4 1010.7 1010.4 32.0
05/01:00am 24.7 29.0 23.3 92 1.0 SE 6 9 3 5 1011.0 1010.7 32.0
05/12:30am 24.8 28.9 23.2 91 1.1 SE 7 13 4 7 1011.3 1011.0 32.0
05/12:00am 24.7 27.8 22.9 90 1.2 ESE 11 15 6 8 1011.5 1011.2 32.0
 
Date/Time
CST
Temp
°C
App
Temp
°C
Dew
Point
°C
Rel
Hum
%
Delta-T
°C
Wind Press
QNH
hPa
Press
MSL
hPa
Rain since
9am
mm
Dir  Spd
km/h
Gust
km/h
Spd
kts
Gust
kts
04/11:30pm 24.8 28.7 23.0 90 1.2 SSE 7 9 4 5 1011.8 1011.5 32.0
04/11:00pm 24.9 28.9 22.8 88 1.4 SSE 6 7 3 4 1012.3 1012.0 32.0
04/10:30pm 25.1 28.3 23.0 88 1.4 SE 11 17 6 9 1012.4 1012.1 32.0
04/10:00pm 25.4 28.9 22.9 86 1.7 SE 9 11 5 6 1012.3 1012.0 32.0
04/09:47pm 25.6 28.6 23.3 87 1.6 SSE 13 17 7 9 1012.2 1011.9 32.0
04/09:30pm 25.9 30.1 24.1 90 1.2 SSE 9 15 5 8 1012.2 1011.9 32.0
04/09:00pm 26.1 29.9 24.0 88 1.4 SSE 11 13 6 7 1012.1 1011.8 32.0
04/08:44pm 26.4 31.2 24.4 89 1.4 S 7 9 4 5 1012.0 1011.7 32.0
04/08:30pm 26.5 32.3 24.5 89 1.4 E 2 6 1 3 1011.8 1011.5 32.0
04/08:00pm 26.6 32.5 24.1 86 1.7 CALM 0 4 0 2 1011.5 1011.2 32.0
04/07:30pm 26.4 31.5 24.1 87 1.6 ESE 4 6 2 3 1011.0 1010.7 32.0
04/07:00pm 26.4 30.9 23.9 86 1.7 ESE 7 9 4 5 1010.5 1010.2 32.0
04/06:30pm 26.7 31.1 24.4 87 1.6 SE 9 11 5 6 1009.9 1009.7 32.0
04/06:00pm 26.9 31.3 24.5 87 1.7 SSE 9 11 5 6 1009.4 1009.2 32.0
04/05:30pm 26.4 30.9 24.6 90 1.3 SSE 9 15 5 8 1009.2 1009.0 32.0
04/05:00pm 26.2 30.7 23.9 87 1.6 S 7 11 4 6 1009.2 1009.0 32.0
04/04:30pm 25.5 29.4 24.3 93 0.8 SSE 11 17 6 9 1009.2 1009.0 32.0
04/04:00pm 25.1 26.6 23.7 92 1.0 S 22 30 12 16 1009.7 1009.5 29.2
04/03:55pm 25.2 26.8 23.3 89 1.3 SSE 20 28 11 15 1009.4 1009.2 27.6
04/03:49pm 25.3 26.5 23.2 88 1.4 SE 22 28 12 15 1009.7 1009.5 22.6
04/03:39pm 25.9 27.7 23.2 85 1.8 ESE 19 24 10 13 1009.7 1009.5 10.0
04/03:36pm 26.7 28.5 23.2 81 2.4 ESE 19 30 10 16 1009.5 1009.3 6.8
04/03:30pm 27.7 29.7 23.9 80 2.6 E 20 33 11 18 1009.2 1009.0 6.6
04/03:28pm 28.1 30.5 24.3 80 2.6 ESE 19 33 10 18 1009.1 1008.9 6.6
04/03:23pm 28.6 32.6 24.4 78 2.9 SE 11 19 6 10 1008.8 1008.6 6.6
04/03:18pm 29.0 33.1 24.6 77 3.1 S 11 17 6 9 1008.7 1008.5 6.6
04/03:00pm 29.4 33.3 23.6 71 4.0 SSW 9 17 5 9 1008.7 1008.5 6.6
04/02:30pm 30.5 34.1 23.7 67 4.7 NW 11 19 6 10 1009.2 1009.0 6.6
04/02:00pm 30.2 34.2 23.1 65 4.9 WNW 7 13 4 7 1009.3 1009.1 6.6
04/01:30pm 28.9 31.9 24.0 75 3.4 S 15 22 8 12 1009.8 1009.6 6.6
04/01:00pm 28.4 31.1 23.5 75 3.4 ENE 15 22 8 12 1010.5 1010.2 6.6
04/12:30pm 28.4 31.5 24.2 78 2.9 ENE 15 22 8 12 1011.1 1010.8 6.6
04/12:00pm 30.3 34.7 25.6 76 3.3 NNW 13 19 7 10 1011.6 1011.3 6.6
04/11:30am 29.1 33.8 24.9 78 2.9 W 9 13 5 7 1011.6 1011.3 6.6
04/11:00am 28.5 33.9 25.5 84 2.1 W 7 11 4 6 1012.1 1011.8 6.6
04/10:30am 27.5 33.1 26.3 93 0.9 WNW 9 17 5 9 1012.3 1012.0 6.6
04/10:17am 26.6 32.3 25.0 91 1.1 WNW 4 6 2 3 1012.3 1012.0 6.6
04/10:00am 26.6 31.6 25.4 93 0.8 NW 9 13 5 7 1012.7 1012.4 6.0
04/09:42am 26.7 31.4 24.9 90 1.3 N 9 19 5 10 1012.6 1012.3 1.2
04/09:30am 27.5 32.8 24.9 86 1.8 SE 6 9 3 5 1012.5 1012.2 0.0
04/09:15am 27.5 32.1 24.7 85 2.0 S 9 13 5 7 1012.5 1012.2 0.0
04/09:00am 27.6 32.2 25.4 88 1.5 S 11 15 6 8 1012.4 1012.1 28.0
04/08:30am 27.3 32.8 25.3 89 1.4 SE 6 9 3 5 1012.2 1011.9 28.0
04/08:00am 26.3 31.4 24.7 91 1.1 SSE 6 9 3 5 1011.9 1011.6 28.0
04/07:36am 25.7 29.4 24.5 93 0.8 ESE 13 15 7 8 1011.7 1011.4 28.0
04/07:30am 25.8 29.9 24.6 93 0.8 E 11 15 6 8 1011.6 1011.3 28.0
04/07:06am 26.5 30.1 24.3 88 1.5 E 13 17 7 9 1011.2 1010.9 23.6
04/07:00am 26.0 30.4 24.4 91 1.1 ENE 9 13 5 7 1011.1 1010.8 19.2
04/06:42am 26.6 32.1 24.6 89 1.4 NW 4 6 2 3 1010.7 1010.4 1.2
04/06:30am 27.6 32.8 24.8 85 2.0 W 6 7 3 4 1010.5 1010.2 0.0
04/06:00am 28.1 32.9 24.5 81 2.5 WSW 7 9 4 5 1010.2 1009.9 0.0
04/05:50am 28.1 32.8 24.3 80 2.6 W 7 9 4 5 1010.0 1009.8 0.0
04/05:30am 28.1 32.4 24.3 80 2.6 W 9 11 5 6 1009.6 1009.4 0.0
04/05:00am 28.1 33.1 24.5 81 2.5 W 6 9 3 5 1009.4 1009.2 0.0
04/04:30am 27.9 33.2 24.3 81 2.5 WNW 4 7 2 4 1009.3 1009.1 0.0
04/04:00am 28.0 32.8 24.2 80 2.6 WNW 6 7 3 4 1008.9 1008.7 0.0
04/03:30am 28.0 32.6 24.2 80 2.6 WNW 7 11 4 6 1009.0 1008.8 0.0
04/03:00am 28.2 32.2 24.4 80 2.6 WNW 11 13 6 7 1009.0 1008.8 0.0
04/02:30am 28.2 32.2 24.4 80 2.6 WNW 11 15 6 8 1009.0 1008.8 0.0
04/02:00am 28.5 33.3 24.5 79 2.8 WNW 7 11 4 6 1009.0 1008.8 0.0
04/01:30am 28.4 32.0 24.4 79 2.8 W 13 15 7 8 1009.3 1009.1 0.0
04/01:00am 28.3 32.4 24.5 80 2.6 W 11 17 6 9 1009.6 1009.4 0.0
04/12:30am 28.2 32.3 24.6 81 2.5 W 11 15 6 8 1009.8 1009.6 0.0
04/12:00am 28.1 32.5 24.5 81 2.5 W 9 11 5 6 1009.8 1009.6 0.0
 
Date/Time
CST
Temp
°C
App
Temp
°C
Dew
Point
°C
Rel
Hum
%
Delta-T
°C
Wind Press
QNH
hPa
Press
MSL
hPa
Rain since
9am
mm
Dir  Spd
km/h
Gust
km/h
Spd
kts
Gust
kts
03/11:30pm 28.2 32.7 24.6 81 2.5 W 9 11 5 6 1009.8 1009.6 0.0
03/11:00pm 28.3 32.4 24.5 80 2.6 W 11 15 6 8 1009.8 1009.6 0.0
03/10:30pm 28.4 32.8 24.4 79 2.8 W 9 13 5 7 1009.8 1009.6 0.0
03/10:00pm 28.6 32.7 24.6 79 2.8 W 11 15 6 8 1009.9 1009.7 0.0
03/09:30pm 28.7 33.1 24.5 78 2.9 WNW 9 13 5 7 1009.7 1009.5 0.0
03/09:00pm 28.8 32.8 24.4 77 3.1 WNW 11 13 6 7 1009.3 1009.1 0.0
03/08:30pm 28.9 32.8 24.2 76 3.3 WNW 11 15 6 8 1009.1 1008.9 0.0
03/08:00pm 29.1 32.4 23.8 73 3.7 WNW 13 19 7 10 1008.9 1008.7 0.0
03/07:30pm 29.1 32.0 23.8 73 3.7 NW 15 20 8 11 1008.5 1008.3 0.0
03/07:00pm 29.3 32.1 23.7 72 3.9 NW 15 19 8 10 1007.9 1007.7 0.0
03/06:30pm 29.7 32.3 23.9 71 4.0 NW 17 20 9 11 1007.5 1007.3 0.0
03/06:00pm 29.9 32.4 23.8 70 4.2 NNW 17 22 9 12 1007.2 1007.0 0.0
03/05:30pm 30.7 33.6 23.9 67 4.7 NNW 15 19 8 10 1006.9 1006.7 0.0
03/05:00pm 30.9 33.2 23.5 64 5.1 NNW 17 24 9 13 1006.6 1006.4 0.0
03/04:30pm 31.2 33.1 22.8 61 5.8 NNW 17 22 9 12 1006.5 1006.3 0.0
03/04:00pm 31.7 33.3 22.1 56 6.5 NW 17 24 9 13 1006.3 1006.1 0.0
03/03:30pm 31.5 33.6 23.1 61 5.8 WNW 17 22 9 12 1006.4 1006.2 0.0
03/03:00pm 32.6 35.8 22.4 55 7.0 NW 9 17 5 9 1006.4 1006.2 0.0
03/02:30pm 32.8 35.8 23.4 57 6.5 NW 13 22 7 12 1006.8 1006.6 0.0
03/02:00pm 31.4 34.2 23.0 61 5.8 W 13 22 7 12 1007.2 1007.0 0.0
03/01:30pm 31.0 34.1 22.9 62 5.6 NW 11 24 6 13 1007.7 1007.5 0.0
03/01:00pm 30.0 32.7 23.4 67 4.5 WNW 15 19 8 10 1008.3 1008.1 0.0
03/12:30pm 30.1 32.0 23.5 67 4.6 WNW 19 24 10 13 1008.9 1008.7 0.0
03/12:00pm 31.4 35.0 23.0 61 5.8 NW 9 20 5 11 1009.1 1008.9 0.0
03/11:30am 30.4 34.0 23.8 68 4.6 N 11 17 6 9 1009.5 1009.3 0.0
03/11:00am 30.0 33.7 23.9 70 4.2 NNW 11 17 6 9 1009.9 1009.7 0.0
03/10:30am 30.8 34.2 22.7 62 5.5 NNE 9 22 5 12 1010.4 1010.1 0.0
03/10:00am 30.0 33.6 23.7 69 4.4 NNE 11 15 6 8 1010.5 1010.2 0.0
03/09:30am 29.3 32.8 23.5 71 4.0 NNE 11 15 6 8 1010.4 1010.1 0.0
03/09:00am 29.3 32.3 23.3 70 4.1 N 13 17 7 9 1010.3 1010.0 0.0
03/08:30am 28.6 32.6 24.4 78 2.9 NNE 11 17 6 9 1010.0 1009.8 0.0
03/08:00am 27.6 32.5 24.6 84 2.1 NE 7 11 4 6 1009.7 1009.5 0.0
03/07:30am 26.6 30.7 23.9 85 1.9 NE 9 11 5 6 1009.4 1009.2 0.0
03/07:00am 25.8 30.1 23.7 88 1.4 NE 7 11 4 6 1009.2 1009.0 0.0
03/06:30am 25.6 30.0 23.5 88 1.4 ENE 6 6 3 3 1008.9 1008.7 0.0
03/06:00am 25.8 31.5 23.8 89 1.4 CALM 0 2 0 1 1008.9 1008.7 0.0
03/05:30am 26.0 31.4 23.9 88 1.4 ENE 2 4 1 2 1008.8 1008.6 0.0
03/05:00am 26.0 31.4 23.3 85 1.8 CALM 0 6 0 3 1008.8 1008.6 0.0
03/04:30am 26.4 32.1 23.7 85 1.9 CALM 0 0 0 0 1008.8 1008.6 0.0
03/04:00am 26.5 31.5 23.8 85 1.9 NNW 4 6 2 3 1008.7 1008.5 0.0
03/03:30am 27.2 31.8 23.2 79 2.7 WNW 4 6 2 3 1008.7 1008.5 0.0

Other formats

Comma delimited format used in spreadsheet applications
http://www.bom.gov.au/fwo/IDD60801/IDD60801.94120.axf

JavaScript Object Notation format (JSON) in row-major order
http://www.bom.gov.au/fwo/IDD60801/IDD60801.94120.json

Data quality

Most of these data are generated automatically and are frequently updated. Quality checks on data are not normally performed. It is possible for incorrect values to appear. Refer to information at About Latest Weather Observations and please check the disclaimer before using these data.